sensor_id;sensor_type;location;lat;lon;timestamp;pressure;altitude;pressure_sealevel;temperature;humidity
48792;BME280;34587;48.816;9.420;2024-03-23T00:55:36;98090.91;;;6.86;100.00
48792;BME280;34587;48.816;9.420;2024-03-23T00:58:02;98090.06;;;6.85;100.00
48792;BME280;34587;48.816;9.420;2024-03-23T05:16:36;97859.13;;;10.07;100.00
48792;BME280;34587;48.816;9.420;2024-03-23T05:19:01;97865.50;;;9.95;100.00
48792;BME280;34587;48.816;9.420;2024-03-23T05:21:27;97872.06;;;9.79;100.00
48792;BME280;34587;48.816;9.420;2024-03-23T05:23:53;97865.63;;;9.63;100.00
48792;BME280;34587;48.816;9.420;2024-03-23T05:26:19;97877.75;;;9.61;100.00
48792;BME280;34587;48.816;9.420;2024-03-23T05:28:44;97885.63;;;9.56;100.00
48792;BME280;34587;48.816;9.420;2024-03-23T05:31:09;97869.47;;;9.49;100.00
48792;BME280;34587;48.816;9.420;2024-03-23T05:33:38;97872.75;;;9.55;100.00
48792;BME280;34587;48.816;9.420;2024-03-23T05:36:03;97883.28;;;9.48;100.00
48792;BME280;34587;48.816;9.420;2024-03-23T05:38:29;97889.25;;;9.50;100.00
48792;BME280;34587;48.816;9.420;2024-03-23T05:40:59;97877.53;;;9.39;100.00
48792;BME280;34587;48.816;9.420;2024-03-23T05:43:24;97890.41;;;9.40;100.00
48792;BME280;34587;48.816;9.420;2024-03-23T05:45:57;97892.00;;;9.44;100.00
48792;BME280;34587;48.816;9.420;2024-03-23T05:48:22;97892.19;;;9.38;100.00
48792;BME280;34587;48.816;9.420;2024-03-23T05:50:48;97893.09;;;9.36;100.00
48792;BME280;34587;48.816;9.420;2024-03-23T05:53:18;97914.59;;;9.38;100.00
48792;BME280;34587;48.816;9.420;2024-03-23T05:55:43;97918.91;;;9.37;100.00
48792;BME280;34587;48.816;9.420;2024-03-23T05:58:09;97933.63;;;9.35;100.00
48792;BME280;34587;48.816;9.420;2024-03-23T06:00:35;97938.78;;;9.35;100.00
48792;BME280;34587;48.816;9.420;2024-03-23T06:03:00;97945.91;;;9.27;100.00
48792;BME280;34587;48.816;9.420;2024-03-23T06:05:26;97938.97;;;9.29;100.00
48792;BME280;34587;48.816;9.420;2024-03-23T06:07:51;97939.22;;;9.20;100.00
48792;BME280;34587;48.816;9.420;2024-03-23T06:10:18;97936.91;;;9.09;100.00
48792;BME280;34587;48.816;9.420;2024-03-23T06:12:43;97914.97;;;9.24;100.00
48792;BME280;34587;48.816;9.420;2024-03-23T06:15:09;97916.84;;;9.19;100.00
48792;BME280;34587;48.816;9.420;2024-03-23T06:17:39;97940.03;;;9.20;100.00
48792;BME280;34587;48.816;9.420;2024-03-23T06:20:05;97944.38;;;9.20;100.00
48792;BME280;34587;48.816;9.420;2024-03-23T06:22:33;97937.50;;;9.19;100.00
48792;BME280;34587;48.816;9.420;2024-03-23T06:24:58;97947.75;;;9.22;100.00
48792;BME280;34587;48.816;9.420;2024-03-23T06:27:24;97953.81;;;9.21;100.00
48792;BME280;34587;48.816;9.420;2024-03-23T06:29:49;97951.41;;;9.15;100.00
48792;BME280;34587;48.816;9.420;2024-03-23T06:32:14;97961.81;;;9.12;100.00
48792;BME280;34587;48.816;9.420;2024-03-23T06:34:43;97963.66;;;9.07;100.00
48792;BME280;34587;48.816;9.420;2024-03-23T06:37:08;97962.75;;;9.09;100.00
48792;BME280;34587;48.816;9.420;2024-03-23T06:39:36;97975.00;;;9.01;100.00
48792;BME280;34587;48.816;9.420;2024-03-23T06:42:02;97991.28;;;9.03;100.00
48792;BME280;34587;48.816;9.420;2024-03-23T06:44:27;98004.16;;;9.06;100.00
48792;BME280;34587;48.816;9.420;2024-03-23T06:46:52;98010.31;;;9.00;100.00
48792;BME280;34587;48.816;9.420;2024-03-23T06:49:18;98015.50;;;9.00;100.00
48792;BME280;34587;48.816;9.420;2024-03-23T06:51:45;98015.50;;;9.00;100.00
48792;BME280;34587;48.816;9.420;2024-03-23T06:54:10;98006.91;;;8.98;100.00
48792;BME280;34587;48.816;9.420;2024-03-23T06:56:35;98008.75;;;8.93;100.00
48792;BME280;34587;48.816;9.420;2024-03-23T06:59:01;98030.91;;;9.04;100.00
48792;BME280;34587;48.816;9.420;2024-03-23T07:01:26;98041.22;;;9.05;100.00
48792;BME280;34587;48.816;9.420;2024-03-23T07:03:51;98053.41;;;8.98;100.00
48792;BME280;34587;48.816;9.420;2024-03-23T07:06:17;98059.44;;;8.99;100.00
48792;BME280;34587;48.816;9.420;2024-03-23T07:08:42;98060.31;;;8.99;100.00
48792;BME280;34587;48.816;9.420;2024-03-23T07:11:07;98064.84;;;8.90;100.00
48792;BME280;34587;48.816;9.420;2024-03-23T07:13:32;98075.72;;;9.02;100.00
48792;BME280;34587;48.816;9.420;2024-03-23T07:15:58;98086.19;;;8.96;100.00
48792;BME280;34587;48.816;9.420;2024-03-23T07:18:25;98075.56;;;9.09;100.00
48792;BME280;34587;48.816;9.420;2024-03-23T07:20:57;98080.03;;;9.39;100.00
48792;BME280;34587;48.816;9.420;2024-03-23T07:23:23;98090.75;;;9.24;100.00
48792;BME280;34587;48.816;9.420;2024-03-23T07:25:59;98090.88;;;9.18;100.00
48792;BME280;34587;48.816;9.420;2024-03-23T07:28:24;98077.88;;;9.21;100.00
48792;BME280;34587;48.816;9.420;2024-03-23T07:31:03;98086.91;;;9.03;100.00
48792;BME280;34587;48.816;9.420;2024-03-23T07:33:29;98088.78;;;8.96;100.00
48792;BME280;34587;48.816;9.420;2024-03-23T07:35:54;98094.13;;;8.89;100.00
48792;BME280;34587;48.816;9.420;2024-03-23T07:38:19;98102.50;;;8.98;100.00
48792;BME280;34587;48.816;9.420;2024-03-23T07:40:45;98102.78;;;8.86;100.00
48792;BME280;34587;48.816;9.420;2024-03-23T07:43:10;98108.69;;;9.30;100.00
48792;BME280;34587;48.816;9.420;2024-03-23T07:45:35;98102.25;;;9.46;100.00
48792;BME280;34587;48.816;9.420;2024-03-23T07:48:03;98097.38;;;9.34;100.00
48792;BME280;34587;48.816;9.420;2024-03-23T07:50:28;98123.38;;;9.28;100.00
48792;BME280;34587;48.816;9.420;2024-03-23T07:52:53;98130.06;;;9.37;100.00
48792;BME280;34587;48.816;9.420;2024-03-23T07:55:19;98129.56;;;9.21;100.00
48792;BME280;34587;48.816;9.420;2024-03-23T07:57:44;98133.22;;;9.12;100.00
48792;BME280;34587;48.816;9.420;2024-03-23T08:00:10;98144.75;;;8.97;100.00
48792;BME280;34587;48.816;9.420;2024-03-23T08:02:35;98152.06;;;8.77;100.00
48792;BME280;34587;48.816;9.420;2024-03-23T08:05:01;98152.38;;;8.62;100.00
48792;BME280;34587;48.816;9.420;2024-03-23T08:07:26;98164.53;;;8.57;100.00
48792;BME280;34587;48.816;9.420;2024-03-23T08:09:51;98151.50;;;8.63;100.00
48792;BME280;34587;48.816;9.420;2024-03-23T08:12:16;98152.31;;;8.65;100.00
48792;BME280;34587;48.816;9.420;2024-03-23T08:14:42;98164.59;;;8.54;100.00
48792;BME280;34587;48.816;9.420;2024-03-23T08:17:07;98185.50;;;8.41;100.00
48792;BME280;34587;48.816;9.420;2024-03-23T08:19:33;98195.88;;;8.38;100.00
48792;BME280;34587;48.816;9.420;2024-03-23T08:21:58;98209.91;;;8.22;100.00
48792;BME280;34587;48.816;9.420;2024-03-23T08:24:23;98217.66;;;8.20;100.00
48792;BME280;34587;48.816;9.420;2024-03-23T08:26:48;98219.81;;;8.46;100.00
48792;BME280;34587;48.816;9.420;2024-03-23T08:29:14;98204.50;;;9.95;100.00
48792;BME280;34587;48.816;9.420;2024-03-23T08:31:39;98210.75;;;11.17;100.00
48792;BME280;34587;48.816;9.420;2024-03-23T08:34:04;98243.19;;;10.37;100.00
48792;BME280;34587;48.816;9.420;2024-03-23T08:36:30;98258.38;;;9.00;100.00
48792;BME280;34587;48.816;9.420;2024-03-23T08:38:55;98265.16;;;8.60;100.00
48792;BME280;34587;48.816;9.420;2024-03-23T08:41:21;98283.47;;;8.47;100.00
48792;BME280;34587;48.816;9.420;2024-03-23T08:43:46;98289.84;;;8.25;100.00
48792;BME280;34587;48.816;9.420;2024-03-23T08:46:13;98309.53;;;8.32;100.00
48792;BME280;34587;48.816;9.420;2024-03-23T08:48:43;98301.88;;;8.26;100.00
48792;BME280;34587;48.816;9.420;2024-03-23T08:51:11;98296.44;;;8.44;100.00
48792;BME280;34587;48.816;9.420;2024-03-23T08:53:38;98300.06;;;8.82;100.00
48792;BME280;34587;48.816;9.420;2024-03-23T08:56:04;98297.97;;;10.56;100.00
48792;BME280;34587;48.816;9.420;2024-03-23T08:58:32;98284.53;;;11.65;100.00
48792;BME280;34587;48.816;9.420;2024-03-23T09:01:03;98310.22;;;11.15;100.00
48792;BME280;34587;48.816;9.420;2024-03-23T09:03:29;98329.28;;;10.47;100.00
48792;BME280;34587;48.816;9.420;2024-03-23T09:05:54;98338.28;;;10.66;100.00
48792;BME280;34587;48.816;9.420;2024-03-23T09:08:20;98357.84;;;9.23;100.00
48792;BME280;34587;48.816;9.420;2024-03-23T09:10:47;98371.50;;;8.83;100.00
48792;BME280;34587;48.816;9.420;2024-03-23T09:13:13;98362.81;;;8.36;100.00
48792;BME280;34587;48.816;9.420;2024-03-23T09:15:47;98369.00;;;8.24;100.00
48792;BME280;34587;48.816;9.420;2024-03-23T09:18:12;98370.22;;;8.58;100.00
48792;BME280;34587;48.816;9.420;2024-03-23T09:20:38;98378.28;;;8.90;100.00
48792;BME280;34587;48.816;9.420;2024-03-23T09:23:04;98391.94;;;8.44;100.00
48792;BME280;34587;48.816;9.420;2024-03-23T09:25:29;98410.41;;;8.15;100.00
48792;BME280;34587;48.816;9.420;2024-03-23T09:27:55;98395.84;;;8.13;100.00
48792;BME280;34587;48.816;9.420;2024-03-23T09:30:20;98395.88;;;8.10;100.00
48792;BME280;34587;48.816;9.420;2024-03-23T09:32:46;98387.09;;;8.23;100.00
48792;BME280;34587;48.816;9.420;2024-03-23T09:35:11;98393.34;;;8.64;100.00
48792;BME280;34587;48.816;9.420;2024-03-23T09:37:38;98390.81;;;9.12;100.00
48792;BME280;34587;48.816;9.420;2024-03-23T09:40:05;98375.03;;;12.34;100.00
48792;BME280;34587;48.816;9.420;2024-03-23T09:42:32;98388.44;;;10.64;100.00
48792;BME280;34587;48.816;9.420;2024-03-23T09:44:59;98380.28;;;11.13;100.00
48792;BME280;34587;48.816;9.420;2024-03-23T09:47:26;98381.66;;;10.21;97.67
48792;BME280;34587;48.816;9.420;2024-03-23T09:49:51;98384.06;;;9.90;95.69
48792;BME280;34587;48.816;9.420;2024-03-23T09:52:17;98377.84;;;9.57;100.00
48792;BME280;34587;48.816;9.420;2024-03-23T09:54:42;98377.25;;;9.87;99.29
48792;BME280;34587;48.816;9.420;2024-03-23T09:57:07;98375.53;;;8.99;100.00
48792;BME280;34587;48.816;9.420;2024-03-23T09:59:33;98368.31;;;9.17;100.00
48792;BME280;34587;48.816;9.420;2024-03-23T10:02:00;98365.81;;;9.12;100.00
48792;BME280;34587;48.816;9.420;2024-03-23T10:04:39;98370.09;;;9.15;100.00
48792;BME280;34587;48.816;9.420;2024-03-23T10:07:17;98374.03;;;8.86;100.00
48792;BME280;34587;48.816;9.420;2024-03-23T10:09:43;98370.28;;;9.02;100.00
48792;BME280;34587;48.816;9.420;2024-03-23T10:12:13;98376.91;;;8.71;100.00
48792;BME280;34587;48.816;9.420;2024-03-23T10:14:39;98380.00;;;8.39;100.00
48792;BME280;34587;48.816;9.420;2024-03-23T10:17:19;98376.66;;;8.29;100.00
48792;BME280;34587;48.816;9.420;2024-03-23T10:19:48;98381.72;;;8.38;100.00
48792;BME280;34587;48.816;9.420;2024-03-23T10:24:42;98372.59;;;8.70;100.00
48792;BME280;34587;48.816;9.420;2024-03-23T10:27:08;98355.66;;;8.54;100.00
48792;BME280;34587;48.816;9.420;2024-03-23T10:29:33;98359.22;;;8.46;100.00
48792;BME280;34587;48.816;9.420;2024-03-23T10:32:08;98355.88;;;8.89;100.00
48792;BME280;34587;48.816;9.420;2024-03-23T10:34:35;98348.88;;;10.20;100.00
48792;BME280;34587;48.816;9.420;2024-03-23T10:37:02;98347.84;;;10.64;100.00
48792;BME280;34587;48.816;9.420;2024-03-23T10:39:28;98351.41;;;11.25;89.14
48792;BME280;34587;48.816;9.420;2024-03-23T10:41:56;98339.50;;;10.86;88.36
48792;BME280;34587;48.816;9.420;2024-03-23T10:44:21;98353.75;;;10.35;88.88
48792;BME280;34587;48.816;9.420;2024-03-23T10:46:50;98342.16;;;10.13;92.72
48792;BME280;34587;48.816;9.420;2024-03-23T10:49:15;98338.44;;;9.45;97.81
48792;BME280;34587;48.816;9.420;2024-03-23T10:51:41;98348.91;;;8.96;100.00
48792;BME280;34587;48.816;9.420;2024-03-23T10:54:06;98346.44;;;8.90;100.00
48792;BME280;34587;48.816;9.420;2024-03-23T10:56:34;98351.75;;;8.79;100.00
48792;BME280;34587;48.816;9.420;2024-03-23T10:59:01;98356.16;;;8.75;100.00
48792;BME280;34587;48.816;9.420;2024-03-23T11:01:28;98352.78;;;8.72;100.00
48792;BME280;34587;48.816;9.420;2024-03-23T11:03:53;98365.94;;;8.55;100.00
48792;BME280;34587;48.816;9.420;2024-03-23T11:06:37;98395.97;;;8.04;100.00
48792;BME280;34587;48.816;9.420;2024-03-23T11:09:03;98433.31;;;7.73;100.00
48792;BME280;34587;48.816;9.420;2024-03-23T11:11:29;98483.94;;;4.94;100.00
48792;BME280;34587;48.816;9.420;2024-03-23T11:13:57;98490.75;;;4.64;100.00
48792;BME280;34587;48.816;9.420;2024-03-23T11:16:29;98505.31;;;4.67;100.00
48792;BME280;34587;48.816;9.420;2024-03-23T11:19:35;98510.47;;;4.74;100.00
48792;BME280;34587;48.816;9.420;2024-03-23T11:22:01;98507.88;;;4.93;100.00
48792;BME280;34587;48.816;9.420;2024-03-23T11:24:27;98513.03;;;4.99;100.00
48792;BME280;34587;48.816;9.420;2024-03-23T11:26:52;98513.88;;;5.28;100.00
48792;BME280;34587;48.816;9.420;2024-03-23T11:29:18;98501.84;;;5.39;100.00
48792;BME280;34587;48.816;9.420;2024-03-23T11:31:53;98483.81;;;5.64;100.00
48792;BME280;34587;48.816;9.420;2024-03-23T11:34:19;98464.66;;;6.35;100.00
48792;BME280;34587;48.816;9.420;2024-03-23T11:36:45;98452.16;;;7.00;100.00
48792;BME280;34587;48.816;9.420;2024-03-23T11:39:15;98452.53;;;7.50;100.00
48792;BME280;34587;48.816;9.420;2024-03-23T11:41:47;98452.13;;;7.85;100.00
48792;BME280;34587;48.816;9.420;2024-03-23T11:44:23;98455.38;;;7.99;100.00
48792;BME280;34587;48.816;9.420;2024-03-23T11:46:49;98451.44;;;8.38;100.00
48792;BME280;34587;48.816;9.420;2024-03-23T11:51:47;98447.63;;;9.15;100.00
48792;BME280;34587;48.816;9.420;2024-03-23T11:54:12;98443.88;;;9.31;100.00
48792;BME280;34587;48.816;9.420;2024-03-23T11:56:38;98435.09;;;9.40;100.00
48792;BME280;34587;48.816;9.420;2024-03-23T11:59:03;98437.78;;;8.84;100.00
48792;BME280;34587;48.816;9.420;2024-03-23T12:01:28;98430.41;;;9.14;100.00
48792;BME280;34587;48.816;9.420;2024-03-23T12:03:54;98426.72;;;9.70;100.00
48792;BME280;34587;48.816;9.420;2024-03-23T12:06:19;98415.28;;;10.22;100.00
48792;BME280;34587;48.816;9.420;2024-03-23T12:08:45;98409.97;;;10.30;100.00
48792;BME280;34587;48.816;9.420;2024-03-23T12:11:15;98406.38;;;9.95;100.00
48792;BME280;34587;48.816;9.420;2024-03-23T12:13:42;98408.00;;;10.01;100.00
48792;BME280;34587;48.816;9.420;2024-03-23T12:16:20;98420.13;;;9.56;100.00
48792;BME280;34587;48.816;9.420;2024-03-23T12:18:49;98415.47;;;8.82;100.00
48792;BME280;34587;48.816;9.420;2024-03-23T12:21:15;98409.78;;;8.61;100.00
48792;BME280;34587;48.816;9.420;2024-03-23T12:23:42;98408.09;;;8.57;100.00
48792;BME280;34587;48.816;9.420;2024-03-23T12:26:09;98405.69;;;8.46;100.00
48792;BME280;34587;48.816;9.420;2024-03-23T12:28:35;98413.84;;;8.17;100.00
48792;BME280;34587;48.816;9.420;2024-03-23T12:31:00;98406.19;;;8.10;100.00
48792;BME280;34587;48.816;9.420;2024-03-23T12:33:25;98405.19;;;8.20;100.00
48792;BME280;34587;48.816;9.420;2024-03-23T12:35:51;98410.38;;;8.17;100.00
48792;BME280;34587;48.816;9.420;2024-03-23T12:38:16;98409.66;;;8.09;100.00
48792;BME280;34587;48.816;9.420;2024-03-23T12:40:46;98397.66;;;8.08;100.00
48792;BME280;34587;48.816;9.420;2024-03-23T12:43:12;98401.72;;;8.22;100.00
48792;BME280;34587;48.816;9.420;2024-03-23T12:45:38;98397.19;;;8.41;100.00
48792;BME280;34587;48.816;9.420;2024-03-23T12:48:03;98405.63;;;8.49;100.00
48792;BME280;34587;48.816;9.420;2024-03-23T12:50:28;98407.25;;;8.57;100.00
48792;BME280;34587;48.816;9.420;2024-03-23T12:52:54;98410.69;;;8.56;100.00
48792;BME280;34587;48.816;9.420;2024-03-23T12:55:19;98402.66;;;8.17;100.00
48792;BME280;34587;48.816;9.420;2024-03-23T12:57:45;98400.69;;;8.34;100.00
48792;BME280;34587;48.816;9.420;2024-03-23T13:00:11;98391.94;;;8.44;100.00
48792;BME280;34587;48.816;9.420;2024-03-23T13:02:40;98394.28;;;8.60;100.00
48792;BME280;34587;48.816;9.420;2024-03-23T13:05:05;98392.66;;;8.54;100.00
48792;BME280;34587;48.816;9.420;2024-03-23T13:07:33;98386.84;;;8.41;100.00
48792;BME280;34587;48.816;9.420;2024-03-23T13:09:58;98382.44;;;8.48;100.00
48792;BME280;34587;48.816;9.420;2024-03-23T13:12:24;98395.28;;;8.53;100.00
48792;BME280;34587;48.816;9.420;2024-03-23T13:14:49;98389.03;;;8.64;100.00
48792;BME280;34587;48.816;9.420;2024-03-23T13:17:14;98371.72;;;9.19;100.00
48792;BME280;34587;48.816;9.420;2024-03-23T13:19:40;98366.31;;;9.73;99.88
48792;BME280;34587;48.816;9.420;2024-03-23T13:22:06;98365.94;;;10.30;100.00
48792;BME280;34587;48.816;9.420;2024-03-23T13:24:31;98349.66;;;11.26;92.34
48792;BME280;34587;48.816;9.420;2024-03-23T13:26:57;98349.41;;;11.65;85.08
48792;BME280;34587;48.816;9.420;2024-03-23T13:29:24;98341.47;;;11.71;76.51
48792;BME280;34587;48.816;9.420;2024-03-23T13:31:50;98337.78;;;11.78;73.37
48792;BME280;34587;48.816;9.420;2024-03-23T13:34:16;98331.63;;;11.52;75.29
48792;BME280;34587;48.816;9.420;2024-03-23T13:36:42;98339.28;;;10.61;78.67
48792;BME280;34587;48.816;9.420;2024-03-23T13:39:08;98341.03;;;10.24;83.09
48792;BME280;34587;48.816;9.420;2024-03-23T13:41:45;98337.00;;;10.48;78.09
48792;BME280;34587;48.816;9.420;2024-03-23T13:44:11;98329.28;;;10.47;84.47
48792;BME280;34587;48.816;9.420;2024-03-23T13:46:41;98325.03;;;11.10;78.03
48792;BME280;34587;48.816;9.420;2024-03-23T13:49:24;98311.84;;;10.86;77.48
48792;BME280;34587;48.816;9.420;2024-03-23T13:51:51;98313.63;;;10.51;74.05
48792;BME280;34587;48.816;9.420;2024-03-23T13:54:16;98301.41;;;10.57;78.15
48792;BME280;34587;48.816;9.420;2024-03-23T13:56:42;98297.44;;;11.38;80.60
48792;BME280;34587;48.816;9.420;2024-03-23T13:59:07;98290.91;;;11.25;76.83
48792;BME280;34587;48.816;9.420;2024-03-23T14:01:32;98282.06;;;11.60;83.76
48792;BME280;34587;48.816;9.420;2024-03-23T14:03:57;98289.28;;;11.80;73.96
48792;BME280;34587;48.816;9.420;2024-03-23T14:06:23;98282.25;;;12.38;68.60
48792;BME280;34587;48.816;9.420;2024-03-23T14:08:49;98285.88;;;11.78;63.11
48792;BME280;34587;48.816;9.420;2024-03-23T14:11:14;98297.75;;;10.96;60.44
48792;BME280;34587;48.816;9.420;2024-03-23T14:13:40;98386.56;;;8.58;88.85
48792;BME280;34587;48.816;9.420;2024-03-23T14:16:05;98386.59;;;7.30;100.00
48792;BME280;34587;48.816;9.420;2024-03-23T14:18:31;98414.78;;;6.55;100.00
48792;BME280;34587;48.816;9.420;2024-03-23T14:20:58;98405.47;;;6.35;100.00
48792;BME280;34587;48.816;9.420;2024-03-23T14:23:27;98417.63;;;6.15;100.00
48792;BME280;34587;48.816;9.420;2024-03-23T14:25:59;98410.03;;;5.90;100.00
48792;BME280;34587;48.816;9.420;2024-03-23T14:28:24;98442.63;;;5.79;100.00
48792;BME280;34587;48.816;9.420;2024-03-23T14:30:50;98433.41;;;5.15;100.00
48792;BME280;34587;48.816;9.420;2024-03-23T14:33:17;98443.72;;;4.73;100.00
48792;BME280;34587;48.816;9.420;2024-03-23T14:35:43;98456.50;;;4.28;100.00
48792;BME280;34587;48.816;9.420;2024-03-23T14:38:08;98442.81;;;4.12;100.00
48792;BME280;34587;48.816;9.420;2024-03-23T14:40:34;98434.28;;;4.21;100.00
48792;BME280;34587;48.816;9.420;2024-03-23T14:42:59;98437.72;;;4.22;100.00
48792;BME280;34587;48.816;9.420;2024-03-23T14:45:24;98418.06;;;4.57;100.00
48792;BME280;34587;48.816;9.420;2024-03-23T14:47:50;98398.31;;;5.22;100.00
48792;BME280;34587;48.816;9.420;2024-03-23T14:50:16;98365.31;;;6.13;100.00
48792;BME280;34587;48.816;9.420;2024-03-23T14:52:44;98383.06;;;6.51;100.00
48792;BME280;34587;48.816;9.420;2024-03-23T14:55:09;98381.81;;;6.93;100.00
48792;BME280;34587;48.816;9.420;2024-03-23T14:57:35;98392.72;;;7.18;100.00
48792;BME280;34587;48.816;9.420;2024-03-23T15:00:00;98384.88;;;7.29;100.00
48792;BME280;34587;48.816;9.420;2024-03-23T15:02:26;98364.22;;;7.32;100.00
48792;BME280;34587;48.816;9.420;2024-03-23T15:04:52;98362.63;;;7.22;100.00
48792;BME280;34587;48.816;9.420;2024-03-23T15:07:19;98365.06;;;7.36;100.00
48792;BME280;34587;48.816;9.420;2024-03-23T15:09:44;98372.66;;;7.43;100.00
48792;BME280;34587;48.816;9.420;2024-03-23T15:12:09;98368.59;;;7.26;100.00
48792;BME280;34587;48.816;9.420;2024-03-23T15:14:35;98365.44;;;6.99;100.00
48792;BME280;34587;48.816;9.420;2024-03-23T15:17:00;98369.63;;;7.11;100.00
48792;BME280;34587;48.816;9.420;2024-03-23T15:19:29;98372.84;;;7.31;100.00
48792;BME280;34587;48.816;9.420;2024-03-23T15:21:54;98360.44;;;7.61;100.00
48792;BME280;34587;48.816;9.420;2024-03-23T15:24:20;98366.72;;;8.05;100.00
48792;BME280;34587;48.816;9.420;2024-03-23T15:26:45;98345.81;;;8.23;100.00
48792;BME280;34587;48.816;9.420;2024-03-23T15:29:11;98352.03;;;8.64;100.00
48792;BME280;34587;48.816;9.420;2024-03-23T15:31:40;98346.13;;;8.56;100.00
48792;BME280;34587;48.816;9.420;2024-03-23T15:34:05;98347.97;;;7.93;100.00
48792;BME280;34587;48.816;9.420;2024-03-23T15:36:35;98336.72;;;7.97;100.00
48792;BME280;34587;48.816;9.420;2024-03-23T15:39:00;98331.06;;;7.74;100.00
48792;BME280;34587;48.816;9.420;2024-03-23T15:41:25;98333.69;;;7.68;100.00
48792;BME280;34587;48.816;9.420;2024-03-23T15:43:51;98336.38;;;7.59;100.00
48792;BME280;34587;48.816;9.420;2024-03-23T15:46:17;98329.19;;;7.82;100.00
48792;BME280;34587;48.816;9.420;2024-03-23T15:48:44;98336.34;;;7.65;100.00
48792;BME280;34587;48.816;9.420;2024-03-23T15:51:11;98336.38;;;7.59;100.00
48792;BME280;34587;48.816;9.420;2024-03-23T15:53:37;98332.41;;;7.35;100.00
48792;BME280;34587;48.816;9.420;2024-03-23T15:56:03;98339.53;;;7.16;100.00
48792;BME280;34587;48.816;9.420;2024-03-23T15:58:30;98338.56;;;7.23;100.00
48792;BME280;34587;48.816;9.420;2024-03-23T16:01:06;98337.56;;;7.36;100.00
48792;BME280;34587;48.816;9.420;2024-03-23T16:03:34;98339.56;;;7.79;100.00
48792;BME280;34587;48.816;9.420;2024-03-23T16:06:01;98341.88;;;7.99;100.00
48792;BME280;34587;48.816;9.420;2024-03-23T16:08:27;98339.78;;;8.21;100.00
48792;BME280;34587;48.816;9.420;2024-03-23T16:10:53;98334.84;;;8.07;100.00
48792;BME280;34587;48.816;9.420;2024-03-23T16:13:19;98331.69;;;7.90;100.00
48792;BME280;34587;48.816;9.420;2024-03-23T16:15:45;98336.34;;;7.62;100.00
48792;BME280;34587;48.816;9.420;2024-03-23T16:18:10;98326.97;;;7.59;100.00
48792;BME280;34587;48.816;9.420;2024-03-23T16:20:36;98332.16;;;7.55;100.00
48792;BME280;34587;48.816;9.420;2024-03-23T16:23:01;98315.47;;;7.80;100.00
48792;BME280;34587;48.816;9.420;2024-03-23T16:25:27;98313.78;;;7.79;100.00
48792;BME280;34587;48.816;9.420;2024-03-23T16:27:53;98303.94;;;8.04;100.00
48792;BME280;34587;48.816;9.420;2024-03-23T16:30:19;98300.38;;;8.13;100.00
48792;BME280;34587;48.816;9.420;2024-03-23T16:32:45;98299.00;;;7.90;100.00
48792;BME280;34587;48.816;9.420;2024-03-23T16:35:12;98311.84;;;7.93;100.00
48792;BME280;34587;48.816;9.420;2024-03-23T16:37:37;98315.28;;;7.92;100.00
48792;BME280;34587;48.816;9.420;2024-03-23T16:40:03;98315.50;;;7.77;100.00
48792;BME280;34587;48.816;9.420;2024-03-23T16:42:29;98315.72;;;7.62;100.00
48792;BME280;34587;48.816;9.420;2024-03-23T16:44:55;98314.19;;;7.48;100.00
48792;BME280;34587;48.816;9.420;2024-03-23T16:47:20;98323.88;;;7.31;100.00
48792;BME280;34587;48.816;9.420;2024-03-23T16:49:45;98308.41;;;7.31;100.00
48792;BME280;34587;48.816;9.420;2024-03-23T16:52:11;98314.56;;;7.21;100.00
48792;BME280;34587;48.816;9.420;2024-03-23T16:54:36;98315.34;;;7.26;100.00
48792;BME280;34587;48.816;9.420;2024-03-23T16:57:01;98306.81;;;7.21;100.00
48792;BME280;34587;48.816;9.420;2024-03-23T16:59:28;98324.91;;;7.15;100.00
48792;BME280;34587;48.816;9.420;2024-03-23T17:01:53;98325.81;;;7.12;100.00
48792;BME280;34587;48.816;9.420;2024-03-23T17:04:21;98345.63;;;7.06;100.00
48792;BME280;34587;48.816;9.420;2024-03-23T17:06:47;98385.44;;;6.74;100.00
48792;BME280;34587;48.816;9.420;2024-03-23T17:09:12;98386.34;;;5.15;100.00
48792;BME280;34587;48.816;9.420;2024-03-23T17:11:38;98380.41;;;4.78;100.00
48792;BME280;34587;48.816;9.420;2024-03-23T17:14:03;98364.16;;;4.73;100.00
48792;BME280;34587;48.816;9.420;2024-03-23T17:16:29;98365.84;;;4.90;100.00
48792;BME280;34587;48.816;9.420;2024-03-23T17:18:56;98358.16;;;4.86;100.00
48792;BME280;34587;48.816;9.420;2024-03-23T17:21:22;98365.84;;;4.97;100.00
48792;BME280;34587;48.816;9.420;2024-03-23T17:23:48;98371.00;;;4.81;100.00
48792;BME280;34587;48.816;9.420;2024-03-23T17:26:13;98367.59;;;4.85;100.00
48792;BME280;34587;48.816;9.420;2024-03-23T17:28:40;98377.84;;;4.88;100.00
48792;BME280;34587;48.816;9.420;2024-03-23T17:31:05;98376.09;;;5.06;100.00
48792;BME280;34587;48.816;9.420;2024-03-23T17:33:30;98382.03;;;5.12;100.00
48792;BME280;34587;48.816;9.420;2024-03-23T17:35:56;98386.34;;;5.03;100.00
48792;BME280;34587;48.816;9.420;2024-03-23T17:38:21;98387.19;;;5.15;100.00
48792;BME280;34587;48.816;9.420;2024-03-23T17:40:47;98382.00;;;5.26;100.00
48792;BME280;34587;48.816;9.420;2024-03-23T17:43:13;98389.75;;;5.23;100.00
48792;BME280;34587;48.816;9.420;2024-03-23T17:45:38;98377.75;;;5.25;100.00
48792;BME280;34587;48.816;9.420;2024-03-23T17:48:04;98387.97;;;5.31;100.00
48792;BME280;34587;48.816;9.420;2024-03-23T17:50:29;98381.97;;;5.40;100.00
48792;BME280;34587;48.816;9.420;2024-03-23T17:52:56;98385.38;;;5.40;100.00
48792;BME280;34587;48.816;9.420;2024-03-23T17:55:21;98393.09;;;5.47;100.00
48792;BME280;34587;48.816;9.420;2024-03-23T17:57:46;98393.94;;;5.47;100.00
48792;BME280;34587;48.816;9.420;2024-03-23T18:00:12;98414.53;;;5.35;100.00
48792;BME280;34587;48.816;9.420;2024-03-23T18:02:39;98425.69;;;5.17;100.00
48792;BME280;34587;48.816;9.420;2024-03-23T18:05:05;98457.41;;;4.43;100.00
48792;BME280;34587;48.816;9.420;2024-03-23T18:07:31;98465.78;;;3.86;100.00
48792;BME280;34587;48.816;9.420;2024-03-23T18:09:56;98477.38;;;3.13;100.00
48792;BME280;34587;48.816;9.420;2024-03-23T18:12:21;98472.84;;;2.79;100.00